createdAt,value
2023-02-24T00:00:32.731Z,64.13
2023-02-24T00:03:06.551Z,64.19
2023-02-24T00:05:37.522Z,64.46
2023-02-24T00:08:10.720Z,64.39
2023-02-24T00:10:39.172Z,64.34
2023-02-24T00:13:07.979Z,64.22
2023-02-24T00:15:36.454Z,64.25
2023-02-24T00:18:07.697Z,64.22
2023-02-24T00:20:36.588Z,64.26
2023-02-24T00:23:05.176Z,64.14
2023-02-24T00:25:33.762Z,64.11
2023-02-24T00:28:02.651Z,64.11
2023-02-24T00:30:33.304Z,64.25
2023-02-24T00:33:04.181Z,64.42
2023-02-24T00:35:32.755Z,64.41
2023-02-24T00:38:03.253Z,64.62
2023-02-24T00:40:37.478Z,64.59
2023-02-24T00:43:09.232Z,64.58
2023-02-24T00:45:41.613Z,64.43
2023-02-24T00:48:16.133Z,64.48
2023-02-24T00:50:44.774Z,64.32
2023-02-24T00:53:13.220Z,64.35
2023-02-24T00:55:41.689Z,64.45
2023-02-24T00:58:10.198Z,64.33
2023-02-24T01:00:39.383Z,64.26
2023-02-24T01:03:08.585Z,64.41
2023-02-24T01:05:38.751Z,64.32
2023-02-24T01:08:08.312Z,64.48
2023-02-24T01:10:38.127Z,64.62
2023-02-24T01:13:06.600Z,64.91
2023-02-24T01:15:37.240Z,64.76
2023-02-24T01:18:11.176Z,64.76
2023-02-24T01:20:39.938Z,64.65
2023-02-24T01:23:08.326Z,64.75
2023-02-24T01:25:39.260Z,64.77
2023-02-24T01:28:11.331Z,64.94
2023-02-24T01:30:43.294Z,65.06
2023-02-24T01:33:14.837Z,65.30
2023-02-24T01:35:43.949Z,65.35
2023-02-24T01:38:12.553Z,65.30
2023-02-24T01:40:43.791Z,65.46
2023-02-24T01:43:13.295Z,65.61
2023-02-24T01:45:41.996Z,65.89
2023-02-24T01:48:11.334Z,65.81
2023-02-24T01:50:41.828Z,65.85
2023-02-24T01:53:11.538Z,66.17
2023-02-24T01:55:50.158Z,66.43
2023-02-24T01:58:28.984Z,66.81
2023-02-24T02:00:58.191Z,66.52
2023-02-24T02:03:38.251Z,66.68
2023-02-24T02:06:07.879Z,66.71
2023-02-24T02:08:38.592Z,67.20
2023-02-24T02:11:09.225Z,67.46
2023-02-24T02:13:43.789Z,67.38
2023-02-24T02:16:48.073Z,67.59
2023-02-24T02:19:41.646Z,67.54
2023-02-24T02:22:30.507Z,67.60
2023-02-24T02:25:26.644Z,67.72
2023-02-24T02:27:58.295Z,67.74
2023-02-24T02:30:34.087Z,67.80
2023-02-24T02:33:28.757Z,67.99
2023-02-24T02:36:00.838Z,67.80
2023-02-24T02:38:57.875Z,67.83
2023-02-24T02:41:29.832Z,67.64
2023-02-24T02:44:12.150Z,67.96
2023-02-24T02:47:06.542Z,68.03
2023-02-24T02:49:38.715Z,68.22
2023-02-24T02:52:38.120Z,68.64
2023-02-24T02:55:28.521Z,68.37
2023-02-24T02:57:57.229Z,68.41
2023-02-24T03:00:35.405Z,68.49
2023-02-24T03:03:10.106Z,68.69
2023-02-24T03:05:55.841Z,68.54
2023-02-24T03:08:27.086Z,68.57
2023-02-24T03:10:58.338Z,68.54
2023-02-24T03:13:30.609Z,68.55
2023-02-24T03:16:03.626Z,68.50
2023-02-24T03:18:34.067Z,68.21
2023-02-24T03:21:09.786Z,68.14
2023-02-24T03:23:48.601Z,68.17
2023-02-24T03:26:29.191Z,68.30
2023-02-24T03:29:11.281Z,68.23
2023-02-24T03:31:46.606Z,68.13
2023-02-24T03:34:21.356Z,68.18
2023-02-24T03:36:54.566Z,68.21
2023-02-24T03:39:24.185Z,68.13
2023-02-24T03:42:12.010Z,68.12
2023-02-24T03:44:42.230Z,68.38
2023-02-24T03:47:16.477Z,68.53
2023-02-24T03:49:45.645Z,68.29
2023-02-24T03:52:29.392Z,68.24
2023-02-24T03:54:59.519Z,68.23
2023-02-24T03:57:55.068Z,68.49
2023-02-24T04:00:52.607Z,68.34
2023-02-24T04:03:25.925Z,68.41
2023-02-24T04:06:16.190Z,68.38
2023-02-24T04:08:52.668Z,68.36
2023-02-24T04:11:30.252Z,68.35
2023-02-24T04:14:08.670Z,68.22
2023-02-24T04:16:57.445Z,68.26
2023-02-24T04:19:27.961Z,68.34
2023-02-24T04:21:56.545Z,68.12
2023-02-24T04:24:29.082Z,68.01
2023-02-24T04:27:01.934Z,68.40
2023-02-24T04:29:35.887Z,68.22
2023-02-24T04:32:09.406Z,68.68
2023-02-24T04:34:40.507Z,68.84
2023-02-24T04:37:09.467Z,69.12
2023-02-24T04:39:38.781Z,69.09
2023-02-24T04:42:11.252Z,68.99
2023-02-24T04:44:39.731Z,69.00
2023-02-24T04:47:10.984Z,69.09
2023-02-24T04:49:41.410Z,69.39
2023-02-24T04:52:09.892Z,69.52
2023-02-24T04:54:38.585Z,69.37
2023-02-24T04:57:08.296Z,69.19
2023-02-24T04:59:38.419Z,69.10
2023-02-24T05:02:06.900Z,69.23
2023-02-24T05:04:39.111Z,69.32
2023-02-24T05:07:08.374Z,69.16
2023-02-24T05:09:37.273Z,69.23
2023-02-24T05:12:06.775Z,68.89
2023-02-24T05:14:36.186Z,69.07
2023-02-24T05:17:04.766Z,69.34
2023-02-24T05:19:52.297Z,69.37
2023-02-24T05:22:23.134Z,69.43
2023-02-24T05:24:51.516Z,69.26
2023-02-24T05:27:23.991Z,69.54
2023-02-24T05:29:55.378Z,69.76
2023-02-24T05:32:25.667Z,69.80
2023-02-24T05:34:54.276Z,69.84
2023-02-24T05:37:22.836Z,69.92
2023-02-24T05:39:55.793Z,69.96
2023-02-24T05:42:24.206Z,70.20
2023-02-24T05:44:53.924Z,70.46
2023-02-24T05:47:25.582Z,70.86
2023-02-24T05:49:57.126Z,70.73
2023-02-24T05:52:25.508Z,70.51
2023-02-24T05:54:55.426Z,70.52
2023-02-24T05:57:32.619Z,70.56
2023-02-24T06:00:09.695Z,70.84
2023-02-24T06:02:49.737Z,70.97
2023-02-24T06:05:26.021Z,71.12
2023-02-24T06:08:06.586Z,71.11
2023-02-24T06:10:35.272Z,71.32
2023-02-24T06:13:04.388Z,71.56
2023-02-24T06:15:33.574Z,71.86
2023-02-24T06:18:02.154Z,71.91
2023-02-24T06:20:33.294Z,71.85
2023-02-24T06:23:02.298Z,71.99
2023-02-24T06:25:33.637Z,71.85
2023-02-24T06:28:02.537Z,72.33
2023-02-24T06:30:33.039Z,72.21
2023-02-24T06:33:01.756Z,72.09
2023-02-24T06:35:30.339Z,72.14
2023-02-24T06:38:04.866Z,72.38
2023-02-24T06:40:33.348Z,72.37
2023-02-24T06:43:03.055Z,72.27
2023-02-24T06:45:32.376Z,72.20
2023-02-24T06:48:00.970Z,72.46
2023-02-24T06:50:33.116Z,72.64
2023-02-24T06:53:03.030Z,72.70
2023-02-24T06:55:35.916Z,72.61
2023-02-24T06:58:04.893Z,72.28
2023-02-24T07:00:40.901Z,72.27
2023-02-24T07:03:19.239Z,72.40
2023-02-24T07:05:54.493Z,72.56
2023-02-24T07:08:24.447Z,72.35
2023-02-24T07:10:56.142Z,72.10
2023-02-24T07:13:26.139Z,72.15
2023-02-24T07:16:07.545Z,72.07
2023-02-24T07:18:37.301Z,72.05
2023-02-24T07:21:06.416Z,71.86
2023-02-24T07:23:35.076Z,71.66
2023-02-24T07:26:10.440Z,71.88
2023-02-24T07:28:40.315Z,71.79
2023-02-24T07:31:13.784Z,71.70
2023-02-24T07:33:45.422Z,71.73
2023-02-24T07:36:15.227Z,71.48
2023-02-24T07:38:44.421Z,71.43
2023-02-24T07:41:15.374Z,71.36
2023-02-24T07:43:44.560Z,71.39
2023-02-24T07:46:14.545Z,71.12
2023-02-24T07:48:42.855Z,71.24
2023-02-24T07:51:12.487Z,71.51
2023-02-24T07:53:43.811Z,71.60
2023-02-24T07:56:14.149Z,71.38
2023-02-24T07:58:46.922Z,71.44
2023-02-24T08:01:23.359Z,71.06
2023-02-24T08:03:56.313Z,71.04
2023-02-24T08:06:31.751Z,71.10
2023-02-24T08:09:16.995Z,71.15
2023-02-24T08:11:47.534Z,71.23
2023-02-24T08:14:27.277Z,71.22
2023-02-24T08:16:59.576Z,71.00
2023-02-24T08:19:33.553Z,70.97
2023-02-24T08:22:19.744Z,70.79
2023-02-24T08:25:00.928Z,71.19
2023-02-24T08:27:32.391Z,71.11
2023-02-24T08:30:03.222Z,71.24
2023-02-24T08:32:34.579Z,71.16
2023-02-24T08:35:14.857Z,71.31
2023-02-24T08:37:52.208Z,71.64
2023-02-24T08:40:32.685Z,71.12
2023-02-24T08:43:17.491Z,71.03
2023-02-24T08:46:18.606Z,71.27
2023-02-24T08:48:49.658Z,71.30
2023-02-24T08:51:23.371Z,71.48
2023-02-24T08:53:53.735Z,71.36
2023-02-24T08:56:26.964Z,71.32
2023-02-24T08:59:05.802Z,71.25
2023-02-24T09:01:40.187Z,71.30
2023-02-24T09:04:11.035Z,71.26
2023-02-24T09:06:44.459Z,70.99
2023-02-24T09:09:18.568Z,71.14
2023-02-24T09:11:56.673Z,71.11
2023-02-24T09:14:37.637Z,70.90
2023-02-24T09:17:07.277Z,70.78
2023-02-24T09:19:42.286Z,70.95
2023-02-24T09:22:31.687Z,70.46
2023-02-24T09:25:21.330Z,70.55
2023-02-24T09:28:10.709Z,70.49
2023-02-24T09:30:51.670Z,70.79
2023-02-24T09:33:21.595Z,70.60
2023-02-24T09:36:09.982Z,70.47
2023-02-24T09:39:21.745Z,70.44
2023-02-24T09:41:54.914Z,70.06
2023-02-24T09:44:26.480Z,70.38
2023-02-24T09:47:31.514Z,70.09
2023-02-24T09:50:06.458Z,69.79
2023-02-24T09:52:42.110Z,70.04
2023-02-24T09:55:28.198Z,70.14
2023-02-24T09:58:19.926Z,69.83
2023-02-24T10:01:21.549Z,69.57
2023-02-24T10:04:20.124Z,69.46
2023-02-24T10:06:50.969Z,69.81
2023-02-24T10:09:34.856Z,69.89
2023-02-24T10:12:07.644Z,69.27
2023-02-24T10:15:14.823Z,69.06
2023-02-24T10:17:47.607Z,69.09
2023-02-24T10:20:39.937Z,69.75
2023-02-24T10:23:45.496Z,69.61
2023-02-24T10:26:30.669Z,69.60
2023-02-24T10:29:09.189Z,69.26
2023-02-24T10:31:46.310Z,69.47
2023-02-24T10:34:25.614Z,69.23
2023-02-24T10:38:05.638Z,69.51
2023-02-24T10:40:47.255Z,69.38
2023-02-24T10:43:30.488Z,69.11
2023-02-24T10:46:06.446Z,69.37
2023-02-24T10:48:42.221Z,69.55
2023-02-24T10:51:20.365Z,69.32
2023-02-24T10:54:10.170Z,69.41
2023-02-24T10:56:55.566Z,69.13
2023-02-24T10:59:48.680Z,68.99
2023-02-24T11:02:33.101Z,69.42
2023-02-24T11:05:27.380Z,69.13
2023-02-24T11:08:49.721Z,69.09
2023-02-24T11:11:26.029Z,68.93
2023-02-24T11:14:19.054Z,69.27
2023-02-24T11:17:10.980Z,69.08
2023-02-24T11:19:45.648Z,69.09
2023-02-24T11:22:15.561Z,68.65
2023-02-24T11:24:45.542Z,68.83
2023-02-24T11:27:16.022Z,68.99
2023-02-24T11:30:26.078Z,68.85
2023-02-24T11:33:09.456Z,68.99
2023-02-24T11:35:48.487Z,68.98
2023-02-24T11:38:28.167Z,69.16
2023-02-24T11:41:05.529Z,69.09
2023-02-24T11:43:35.691Z,69.11
2023-02-24T11:46:27.139Z,68.85
2023-02-24T11:48:57.300Z,69.00
2023-02-24T11:51:34.512Z,68.95
2023-02-24T11:54:10.850Z,68.35
2023-02-24T11:56:40.239Z,68.64
2023-02-24T11:59:33.824Z,68.84
2023-02-24T12:02:48.333Z,69.20
2023-02-24T12:05:27.746Z,68.87
2023-02-24T12:08:26.104Z,68.89
2023-02-24T12:11:11.714Z,69.26
2023-02-24T12:13:48.770Z,69.24
2023-02-24T12:16:33.604Z,68.90
2023-02-24T12:19:14.102Z,68.43
2023-02-24T12:21:49.547Z,68.41
2023-02-24T12:24:18.035Z,68.41
2023-02-24T12:26:59.734Z,68.70
2023-02-24T12:29:48.892Z,68.62
2023-02-24T12:32:43.213Z,68.35
2023-02-24T12:35:36.850Z,68.32
2023-02-24T12:38:28.996Z,68.04
2023-02-24T12:41:12.526Z,68.36
2023-02-24T12:43:59.084Z,68.29
2023-02-24T12:46:35.731Z,68.19
2023-02-24T12:49:23.335Z,68.45
2023-02-24T12:52:05.200Z,68.17
2023-02-24T12:55:00.866Z,68.26
2023-02-24T12:57:53.911Z,68.12
2023-02-24T13:00:40.669Z,67.86
2023-02-24T13:03:37.471Z,67.61
2023-02-24T13:06:23.260Z,67.99
2023-02-24T13:09:13.962Z,67.85
2023-02-24T13:11:42.449Z,67.82
2023-02-24T13:14:37.565Z,67.70
2023-02-24T13:17:12.147Z,67.36
2023-02-24T13:19:43.522Z,67.31
2023-02-24T13:22:12.758Z,67.04
2023-02-24T13:24:55.360Z,66.57
2023-02-24T13:27:29.357Z,66.13
2023-02-24T13:30:01.192Z,65.88
2023-02-24T13:32:55.936Z,65.93
2023-02-24T13:35:24.404Z,66.30
2023-02-24T13:37:54.472Z,66.80
2023-02-24T13:40:24.548Z,67.22
2023-02-24T13:43:00.198Z,67.33
2023-02-24T13:45:30.379Z,67.53
2023-02-24T13:48:21.229Z,67.77
2023-02-24T13:50:53.006Z,68.03
2023-02-24T13:53:46.564Z,68.50
2023-02-24T13:56:34.409Z,68.89
2023-02-24T13:59:19.679Z,69.17
2023-02-24T14:02:12.808Z,69.05
2023-02-24T14:04:51.910Z,69.31
2023-02-24T14:07:25.587Z,69.52
2023-02-24T14:10:19.413Z,69.88
2023-02-24T14:12:48.561Z,70.21
2023-02-24T14:15:24.512Z,70.25
2023-02-24T14:17:59.898Z,70.30
2023-02-24T14:20:31.993Z,70.44
2023-02-24T14:23:01.634Z,70.79
2023-02-24T14:25:36.106Z,70.74
2023-02-24T14:28:05.258Z,70.51
2023-02-24T14:30:35.966Z,70.55
2023-02-24T14:33:07.075Z,70.34
2023-02-24T14:35:39.302Z,70.49
2023-02-24T14:38:30.314Z,70.58
2023-02-24T14:40:58.712Z,70.55
2023-02-24T14:43:28.407Z,70.32
2023-02-24T14:45:58.243Z,70.30
2023-02-24T14:48:30.137Z,70.58
2023-02-24T14:51:03.586Z,70.57
2023-02-24T14:53:32.067Z,70.85
2023-02-24T14:56:01.423Z,70.99
2023-02-24T14:58:42.459Z,71.05
2023-02-24T15:01:52.568Z,71.03
2023-02-24T15:04:34.425Z,71.28
2023-02-24T15:07:05.250Z,71.64
2023-02-24T15:09:41.062Z,71.95
2023-02-24T15:12:12.486Z,71.87
2023-02-24T15:15:13.699Z,71.85
2023-02-24T15:17:42.727Z,71.88
2023-02-24T15:20:44.144Z,72.22
2023-02-24T15:23:47.856Z,72.38
2023-02-24T15:26:33.948Z,72.29
2023-02-24T15:29:13.025Z,72.47
2023-02-24T15:31:47.615Z,72.59
2023-02-24T15:34:23.054Z,72.51
2023-02-24T15:36:53.887Z,72.72
2023-02-24T15:39:24.203Z,72.59
2023-02-24T15:41:52.594Z,72.55
2023-02-24T15:44:27.600Z,72.99
2023-02-24T15:46:57.103Z,73.32
2023-02-24T15:49:25.633Z,73.53
2023-02-24T15:51:55.198Z,73.29
2023-02-24T15:54:35.318Z,73.02
2023-02-24T15:57:03.876Z,72.99
2023-02-24T15:59:32.361Z,72.95
2023-02-24T16:02:01.343Z,73.14
2023-02-24T16:04:29.827Z,73.09
2023-02-24T16:06:58.323Z,72.78
2023-02-24T16:09:36.937Z,72.80
2023-02-24T16:12:12.400Z,72.67
2023-02-24T16:14:44.047Z,72.84
2023-02-24T16:17:33.514Z,73.07
2023-02-24T16:20:02.524Z,72.97
2023-02-24T16:22:31.318Z,72.92
2023-02-24T16:24:59.991Z,73.00
2023-02-24T16:27:30.004Z,72.87
2023-02-24T16:29:58.691Z,73.10
2023-02-24T16:32:27.353Z,73.40
2023-02-24T16:34:57.429Z,73.21
2023-02-24T16:37:29.478Z,73.30
2023-02-24T16:40:00.788Z,73.34
2023-02-24T16:42:29.404Z,73.48
2023-02-24T16:44:57.783Z,73.80
2023-02-24T16:47:26.167Z,73.84
2023-02-24T16:49:58.132Z,74.04
2023-02-24T16:52:26.617Z,74.15
2023-02-24T16:54:55.094Z,74.43
2023-02-24T16:57:25.963Z,74.95
2023-02-24T16:59:55.137Z,75.23
2023-02-24T17:02:43.686Z,75.28
2023-02-24T17:05:24.884Z,75.84
2023-02-24T17:07:55.306Z,76.39
2023-02-24T17:10:28.902Z,76.96
2023-02-24T17:12:58.307Z,77.15
2023-02-24T17:15:27.916Z,77.31
2023-02-24T17:17:57.118Z,77.42
2023-02-24T17:20:25.501Z,77.66
2023-02-24T17:22:59.210Z,77.96
2023-02-24T17:25:28.868Z,78.58
2023-02-24T17:27:58.545Z,78.73
2023-02-24T17:30:30.672Z,79.02
2023-02-24T17:32:59.386Z,79.25
2023-02-24T17:35:28.171Z,79.61
2023-02-24T17:37:56.975Z,79.85
2023-02-24T17:40:26.677Z,80.01
2023-02-24T17:42:55.377Z,80.29
2023-02-24T17:45:24.055Z,80.58
2023-02-24T17:47:54.175Z,80.75
2023-02-24T17:50:22.437Z,80.80
2023-02-24T17:52:51.143Z,81.03
2023-02-24T17:55:19.631Z,81.31
2023-02-24T17:57:47.906Z,81.37
2023-02-24T18:00:16.991Z,81.24
2023-02-24T18:02:45.640Z,81.09
2023-02-24T18:05:14.797Z,81.08
2023-02-24T18:07:45.106Z,81.09
2023-02-24T18:10:13.623Z,81.17
2023-02-24T18:12:42.070Z,81.12
2023-02-24T18:15:10.869Z,80.92
2023-02-24T18:17:40.271Z,80.60
2023-02-24T18:20:12.586Z,80.59
2023-02-24T18:22:41.940Z,80.56
2023-02-24T18:25:10.728Z,80.58
2023-02-24T18:27:39.015Z,80.45
2023-02-24T18:30:17.936Z,80.44
2023-02-24T18:32:48.251Z,80.58
2023-02-24T18:35:17.771Z,80.52
2023-02-24T18:37:49.225Z,80.40
2023-02-24T18:40:17.708Z,80.30
2023-02-24T18:42:46.196Z,79.80
2023-02-24T18:45:14.575Z,79.64
2023-02-24T18:47:42.965Z,79.68
2023-02-24T18:50:13.158Z,79.74
2023-02-24T18:52:41.702Z,79.68
2023-02-24T18:55:10.661Z,79.50
2023-02-24T18:57:39.858Z,79.55
2023-02-24T19:00:14.083Z,79.56
2023-02-24T19:02:42.976Z,79.60
2023-02-24T19:05:13.239Z,79.62
2023-02-24T19:07:43.219Z,79.46
2023-02-24T19:10:15.801Z,79.45
2023-02-24T19:12:44.476Z,79.12
2023-02-24T19:15:14.495Z,79.19
2023-02-24T19:17:44.984Z,79.46
2023-02-24T19:20:16.749Z,79.37
2023-02-24T19:22:47.742Z,79.36
2023-02-24T19:25:17.548Z,79.19
2023-02-24T19:27:48.281Z,79.06
2023-02-24T19:30:17.659Z,78.99
2023-02-24T19:32:47.364Z,79.22
2023-02-24T19:35:18.702Z,79.06
2023-02-24T19:37:48.987Z,78.98
2023-02-24T19:40:18.504Z,79.08
2023-02-24T19:42:52.125Z,78.92
2023-02-24T19:45:22.100Z,78.91
2023-02-24T19:47:50.994Z,78.77
2023-02-24T19:50:22.530Z,78.33
2023-02-24T19:52:51.643Z,78.00
2023-02-24T19:55:20.027Z,77.91
2023-02-24T19:57:48.412Z,77.91
2023-02-24T20:00:19.085Z,77.81
2023-02-24T20:02:47.520Z,77.58
2023-02-24T20:05:16.209Z,77.37
2023-02-24T20:07:44.689Z,77.26
2023-02-24T20:10:15.967Z,77.39
2023-02-24T20:12:45.243Z,77.51
2023-02-24T20:15:13.831Z,77.52
2023-02-24T20:17:49.921Z,77.58
2023-02-24T20:20:18.579Z,77.75
2023-02-24T20:22:47.267Z,77.81
2023-02-24T20:25:16.773Z,77.73
2023-02-24T20:27:45.259Z,78.14
2023-02-24T20:30:14.180Z,78.08
2023-02-24T20:32:42.666Z,78.14
2023-02-24T20:35:11.141Z,78.16
2023-02-24T20:37:40.830Z,78.27
2023-02-24T20:40:10.282Z,78.48
2023-02-24T20:42:40.251Z,78.33
2023-02-24T20:45:12.525Z,78.25
2023-02-24T20:47:41.414Z,78.30
2023-02-24T20:50:10.338Z,78.39
2023-02-24T20:52:38.893Z,78.48
2023-02-24T20:55:07.817Z,78.45
2023-02-24T20:57:36.889Z,78.46
2023-02-24T21:00:08.349Z,78.32
2023-02-24T21:02:41.527Z,78.35
2023-02-24T21:05:10.882Z,78.23
2023-02-24T21:07:39.278Z,78.18
2023-02-24T21:10:11.542Z,77.96
2023-02-24T21:12:40.886Z,78.03
2023-02-24T21:15:12.555Z,78.04
2023-02-24T21:17:41.440Z,78.10
2023-02-24T21:20:11.402Z,78.11
2023-02-24T21:22:40.581Z,78.00
2023-02-24T21:25:11.020Z,77.91
2023-02-24T21:27:39.674Z,78.02
2023-02-24T21:30:09.116Z,78.15
2023-02-24T21:32:37.794Z,78.14
2023-02-24T21:35:08.611Z,78.18
2023-02-24T21:37:37.594Z,78.06
2023-02-24T21:40:11.303Z,78.01
2023-02-24T21:42:43.265Z,78.14
2023-02-24T21:45:12.078Z,78.16
2023-02-24T21:47:41.473Z,78.25
2023-02-24T21:50:12.197Z,78.36
2023-02-24T21:52:41.097Z,78.41
2023-02-24T21:55:09.953Z,78.54
2023-02-24T21:57:44.942Z,78.61
2023-02-24T22:00:19.320Z,78.54
2023-02-24T22:02:49.720Z,78.68
2023-02-24T22:05:20.617Z,78.82
2023-02-24T22:07:50.522Z,79.17
2023-02-24T22:10:20.819Z,79.09
2023-02-24T22:12:49.642Z,79.06
2023-02-24T22:15:18.119Z,79.22
2023-02-24T22:17:46.500Z,79.45
2023-02-24T22:20:19.185Z,79.72
2023-02-24T22:22:48.811Z,79.78
2023-02-24T22:25:17.787Z,79.75
2023-02-24T22:27:46.075Z,79.81
2023-02-24T22:30:15.683Z,79.82
2023-02-24T22:32:44.691Z,79.89
2023-02-24T22:35:14.487Z,80.07
2023-02-24T22:37:42.868Z,79.90
2023-02-24T22:40:12.319Z,79.68
2023-02-24T22:42:40.861Z,79.73
2023-02-24T22:45:09.882Z,79.84
2023-02-24T22:47:38.297Z,79.95
2023-02-24T22:50:07.260Z,79.90
2023-02-24T22:55:46.703Z,79.88
2023-02-24T22:58:15.809Z,79.90
2023-02-24T23:00:46.577Z,79.97
2023-02-24T23:03:16.329Z,79.98
2023-02-24T23:06:06.704Z,80.08
2023-02-24T23:08:37.373Z,80.10
2023-02-24T23:11:21.119Z,80.40
2023-02-24T23:13:51.128Z,80.48
2023-02-24T23:16:22.266Z,80.36
2023-02-24T23:18:54.134Z,80.27
2023-02-24T23:21:25.317Z,80.32
2023-02-24T23:23:57.153Z,80.50
2023-02-24T23:26:45.906Z,80.72
2023-02-24T23:29:17.496Z,80.63
2023-02-24T23:31:46.538Z,80.48
2023-02-24T23:34:15.445Z,80.62
2023-02-24T23:36:46.090Z,80.79
2023-02-24T23:39:23.239Z,80.92
2023-02-24T23:41:57.542Z,81.01
2023-02-24T23:44:26.587Z,80.83
2023-02-24T23:46:55.327Z,80.85
2023-02-24T23:49:24.264Z,80.75
2023-02-24T23:51:53.569Z,81.04
2023-02-24T23:54:21.954Z,81.14
2023-02-24T23:56:50.949Z,81.14
2023-02-24T23:59:21.884Z,81.04
